Colton, Ohio
Current Conditions -  °F | °C
As of 7:52 AM on Friday 31 Oct 2014 (Local Time) from KTOL Reporting Station
Light Rain Light Rain  
Wind Chill: 39°   Ceiling: 4200
Heat Index: 43°   Visibility: 10mi
Dew Point: 36°   Wind: 7mph
Humidity: 76%   Direction: 230°SW
Pressure: 29.9"   Gusts: NA
Location:  41.46°N, 83.95°W
Report Text: KTOL 311152Z 23006KT 10SM -RA OVC042 06/02 A2990 RMK AO2 RAB52 SLP130 P0000 60000 T00610022 10072 20061 58015
Loading
Personal Weather Stations






























Interactive Weather Map
Tropical Storm Tracking
New forecast layout! Learn more

10-Day Weather Forecast

Advertisements
Track Severe Weather on mobile